createdAt,value
2022-09-11T00:01:31.470Z,0.80
2022-09-11T00:03:58.356Z,1.00
2022-09-11T00:06:29.660Z,1.13
2022-09-11T00:09:02.197Z,1.83
2022-09-11T00:11:35.613Z,0.52
2022-09-11T00:14:02.742Z,0.75
2022-09-11T00:16:34.591Z,1.13
2022-09-11T00:19:04.801Z,0.68
2022-09-11T00:21:31.775Z,0.63
2022-09-11T00:23:58.155Z,1.00
2022-09-11T00:26:25.464Z,1.45
2022-09-11T00:28:52.837Z,1.08
2022-09-11T00:31:24.894Z,1.95
2022-09-11T00:33:51.668Z,2.05
2022-09-11T00:36:21.414Z,0.80
2022-09-11T00:38:49.424Z,1.63
2022-09-11T00:41:20.647Z,0.82
2022-09-11T00:43:55.642Z,1.38
2022-09-11T00:46:26.085Z,1.98
2022-09-11T00:48:52.964Z,1.80
2022-09-11T00:51:23.637Z,1.30
2022-09-11T00:53:52.804Z,1.42
2022-09-11T00:56:20.540Z,1.00
2022-09-11T00:58:49.784Z,4.03
2022-09-11T01:01:16.337Z,1.80
2022-09-11T01:03:42.916Z,1.05
2022-09-11T01:06:11.107Z,1.65
2022-09-11T01:08:38.558Z,1.05
2022-09-11T01:11:44.212Z,1.27
2022-09-11T01:14:30.253Z,0.85
2022-09-11T01:17:26.547Z,1.35
2022-09-11T01:20:14.510Z,0.85
2022-09-11T01:22:58.113Z,1.67
2022-09-11T01:25:33.317Z,0.70
2022-09-11T01:28:04.777Z,1.33
2022-09-11T01:30:37.780Z,1.08
2022-09-11T01:33:23.053Z,1.23
2022-09-11T01:36:17.913Z,1.23
2022-09-11T01:38:58.294Z,1.55
2022-09-11T01:41:35.718Z,1.45
2022-09-11T01:44:14.237Z,1.38
2022-09-11T01:46:50.894Z,0.90
2022-09-11T01:49:22.643Z,1.25
2022-09-11T01:51:54.243Z,0.77
2022-09-11T01:54:23.024Z,1.77
2022-09-11T01:56:57.179Z,2.05
2022-09-11T01:59:30.597Z,1.05
2022-09-11T02:02:08.046Z,0.77
2022-09-11T02:04:44.446Z,1.23
2022-09-11T02:07:15.430Z,1.63
2022-09-11T02:09:47.790Z,0.70
2022-09-11T02:12:20.772Z,1.48
2022-09-11T02:14:51.034Z,1.10
2022-09-11T02:17:36.456Z,0.90
2022-09-11T02:20:05.665Z,1.00
2022-09-11T02:22:32.094Z,0.70
2022-09-11T02:24:58.463Z,0.90
2022-09-11T02:27:27.645Z,1.02
2022-09-11T02:29:55.432Z,1.10
2022-09-11T02:32:22.727Z,1.90
2022-09-11T02:34:51.195Z,1.10
2022-09-11T02:37:39.028Z,0.73
2022-09-11T02:40:38.460Z,3.03
2022-09-11T02:43:39.440Z,2.13
2022-09-11T02:46:29.975Z,1.10
2022-09-11T02:49:20.731Z,1.98
2022-09-11T02:52:03.088Z,0.70
2022-09-11T02:54:52.704Z,0.55
2022-09-11T02:57:33.228Z,0.90
2022-09-11T03:00:02.441Z,1.23
2022-09-11T03:02:30.993Z,1.42
2022-09-11T03:04:58.356Z,1.23
2022-09-11T03:07:25.392Z,1.50
2022-09-11T03:09:52.459Z,0.95
2022-09-11T03:12:19.383Z,0.60
2022-09-11T03:14:45.750Z,2.88
2022-09-11T03:17:13.123Z,0.70
2022-09-11T03:19:39.911Z,1.50
2022-09-11T03:22:06.715Z,1.95
2022-09-11T03:24:33.081Z,0.73
2022-09-11T03:27:00.159Z,0.80
2022-09-11T03:29:26.524Z,1.00
2022-09-11T03:31:53.005Z,0.77
2022-09-11T03:34:20.207Z,0.90
2022-09-11T03:36:48.029Z,0.98
2022-09-11T03:39:14.410Z,1.13
2022-09-11T03:41:41.260Z,1.05
2022-09-11T03:44:08.102Z,0.75
2022-09-11T03:46:35.058Z,2.65
2022-09-11T03:49:02.664Z,2.05
2022-09-11T03:51:29.928Z,1.20
2022-09-11T03:53:58.380Z,0.98
2022-09-11T03:56:25.247Z,1.55
2022-09-11T03:58:58.317Z,2.70
2022-09-11T04:01:27.437Z,1.92
2022-09-11T04:03:53.831Z,0.90
2022-09-11T04:06:20.478Z,1.13
2022-09-11T04:08:47.285Z,1.58
2022-09-11T04:11:14.202Z,1.70
2022-09-11T04:13:42.319Z,1.05
2022-09-11T04:16:13.051Z,1.63
2022-09-11T04:18:41.169Z,2.72
2022-09-11T04:21:11.871Z,1.38
2022-09-11T04:23:39.339Z,1.33
2022-09-11T04:26:17.460Z,2.67
2022-09-11T04:28:45.182Z,0.77
2022-09-11T04:31:12.561Z,1.73
2022-09-11T04:33:39.630Z,1.88
2022-09-11T04:36:08.767Z,2.63
2022-09-11T04:38:35.444Z,2.70
2022-09-11T04:41:03.268Z,2.95
2022-09-11T04:43:35.281Z,1.30
2022-09-11T04:46:04.786Z,1.60
2022-09-11T04:48:31.208Z,2.40
2022-09-11T04:51:06.593Z,1.65
2022-09-11T04:53:34.093Z,2.38
2022-09-11T04:56:14.042Z,0.90
2022-09-11T04:58:42.091Z,2.05
2022-09-11T05:01:10.931Z,0.93
2022-09-11T05:03:37.897Z,1.13
2022-09-11T05:06:08.372Z,1.85
2022-09-11T05:08:35.064Z,1.10
2022-09-11T05:11:01.922Z,1.27
2022-09-11T05:13:36.062Z,2.40
2022-09-11T05:16:03.618Z,4.15
2022-09-11T05:18:30.597Z,1.67
2022-09-11T05:21:06.452Z,1.02
2022-09-11T05:23:34.194Z,2.22
2022-09-11T05:26:02.723Z,1.13
2022-09-11T05:28:31.272Z,1.77
2022-09-11T05:30:58.397Z,3.00
2022-09-11T05:33:26.392Z,0.98
2022-09-11T05:35:54.397Z,1.65
2022-09-11T05:38:22.038Z,4.75
2022-09-11T05:40:50.876Z,2.13
2022-09-11T05:43:20.053Z,3.05
2022-09-11T05:45:55.259Z,1.60
2022-09-11T05:48:22.524Z,2.20
2022-09-11T05:50:55.003Z,2.90
2022-09-11T05:53:22.016Z,4.22
2022-09-11T05:55:49.817Z,4.82
2022-09-11T05:58:19.755Z,5.03
2022-09-11T06:00:46.638Z,4.63
2022-09-11T06:03:15.616Z,4.38
2022-09-11T06:05:43.405Z,4.18
2022-09-11T06:08:10.594Z,7.00
2022-09-11T06:10:37.915Z,6.95
2022-09-11T06:13:04.729Z,6.05
2022-09-11T06:15:46.077Z,7.13
2022-09-11T06:18:14.603Z,6.97
2022-09-11T06:20:41.796Z,4.60
2022-09-11T06:23:11.812Z,4.57
2022-09-11T06:25:39.511Z,7.55
2022-09-11T06:28:05.863Z,6.82
2022-09-11T06:30:33.369Z,5.68
2022-09-11T06:32:59.968Z,6.10
2022-09-11T06:35:26.384Z,7.03
2022-09-11T06:37:52.960Z,5.50
2022-09-11T06:40:19.702Z,6.95
2022-09-11T06:42:46.133Z,6.70
2022-09-11T06:45:12.487Z,5.40
2022-09-11T06:47:39.306Z,6.30
2022-09-11T06:50:06.423Z,4.40
2022-09-11T06:52:34.544Z,6.53
2022-09-11T06:55:02.217Z,6.65
2022-09-11T06:57:28.602Z,6.38
2022-09-11T06:59:55.155Z,4.75
2022-09-11T07:02:21.724Z,5.38
2022-09-11T07:04:48.121Z,5.65
2022-09-11T07:07:14.464Z,6.10
2022-09-11T07:09:41.292Z,5.97
2022-09-11T07:12:07.852Z,6.32
2022-09-11T07:14:34.682Z,7.05
2022-09-11T07:17:01.919Z,6.10
2022-09-11T07:19:28.355Z,5.47
2022-09-11T07:21:54.861Z,6.20
2022-09-11T07:24:21.602Z,6.13
2022-09-11T07:26:48.008Z,5.80
2022-09-11T07:29:14.471Z,4.55
2022-09-11T07:31:43.048Z,6.13
2022-09-11T07:34:10.711Z,4.47
2022-09-11T07:36:37.859Z,4.97
2022-09-11T07:39:05.282Z,4.82
2022-09-11T07:41:32.030Z,6.18
2022-09-11T07:44:00.166Z,4.10
2022-09-11T07:46:26.876Z,5.78
2022-09-11T07:48:55.416Z,4.85
2022-09-11T07:51:21.830Z,7.18
2022-09-11T07:53:50.740Z,5.00
2022-09-11T07:56:24.260Z,6.35
2022-09-11T07:58:52.354Z,4.78
2022-09-11T08:01:21.597Z,5.78
2022-09-11T08:03:49.647Z,6.07
2022-09-11T08:06:22.066Z,5.72
2022-09-11T08:08:54.108Z,6.72
2022-09-11T08:11:21.056Z,7.55
2022-09-11T08:13:50.872Z,6.13
2022-09-11T08:16:19.146Z,6.22
2022-09-11T08:18:46.058Z,7.32
2022-09-11T08:21:13.477Z,5.28
2022-09-11T08:23:42.336Z,5.45
2022-09-11T08:26:23.172Z,6.18
2022-09-11T08:28:52.081Z,5.03
2022-09-11T08:31:21.013Z,6.57
2022-09-11T08:33:49.270Z,6.00
2022-09-11T08:36:15.943Z,5.90
2022-09-11T08:38:43.694Z,5.57
2022-09-11T08:41:24.814Z,5.70
2022-09-11T08:43:53.268Z,7.25
2022-09-11T08:46:23.372Z,5.35
2022-09-11T08:49:03.184Z,7.43
2022-09-11T08:51:31.701Z,8.60
2022-09-11T08:54:01.871Z,5.97
2022-09-11T08:56:30.911Z,6.45
2022-09-11T08:59:03.125Z,7.10
2022-09-11T09:01:57.679Z,6.70
2022-09-11T09:05:00.294Z,6.40
2022-09-11T09:07:45.404Z,6.13
2022-09-11T09:10:37.287Z,5.78
2022-09-11T09:13:45.132Z,5.72
2022-09-11T09:16:30.248Z,4.63
2022-09-11T09:19:08.476Z,7.63
2022-09-11T09:21:42.401Z,11.88
2022-09-11T09:24:19.241Z,5.60
2022-09-11T09:26:52.986Z,5.82
2022-09-11T09:29:28.440Z,5.22
2022-09-11T09:32:02.388Z,6.82
2022-09-11T09:34:34.083Z,6.07
2022-09-11T09:37:12.285Z,5.47
2022-09-11T09:39:39.063Z,5.25
2022-09-11T09:42:35.137Z,4.68
2022-09-11T09:45:38.827Z,5.57
2022-09-11T09:48:08.628Z,5.53
2022-09-11T09:50:39.352Z,5.45
2022-09-11T09:53:27.581Z,4.85
2022-09-11T09:55:55.279Z,5.65
2022-09-11T09:58:27.120Z,6.25
2022-09-11T10:00:53.699Z,6.65
2022-09-11T10:03:22.920Z,5.40
2022-09-11T10:05:53.499Z,5.53
2022-09-11T10:08:35.417Z,6.13
2022-09-11T10:11:04.603Z,6.32
2022-09-11T10:13:33.301Z,5.28
2022-09-11T10:16:03.467Z,4.18
2022-09-11T10:18:30.381Z,6.30
2022-09-11T10:21:11.744Z,4.50
2022-09-11T10:23:45.620Z,6.82
2022-09-11T10:26:31.378Z,5.20
2022-09-11T10:29:21.508Z,4.60
2022-09-11T10:31:55.262Z,4.60
2022-09-11T10:34:25.815Z,4.53
2022-09-11T10:37:00.392Z,5.45
2022-09-11T10:39:31.280Z,4.43
2022-09-11T10:42:02.000Z,5.03
2022-09-11T10:44:29.997Z,4.82
2022-09-11T10:47:17.307Z,4.55
2022-09-11T10:49:44.916Z,3.97
2022-09-11T10:52:11.249Z,3.60
2022-09-11T10:55:02.568Z,4.25
2022-09-11T10:57:46.560Z,4.07
2022-09-11T11:00:22.815Z,2.40
2022-09-11T11:02:56.020Z,3.20
2022-09-11T11:05:34.513Z,3.47
2022-09-11T11:08:25.068Z,3.63
2022-09-11T11:11:03.692Z,2.95
2022-09-11T11:13:45.171Z,2.67
2022-09-11T11:16:23.396Z,2.97
2022-09-11T11:19:13.190Z,2.28
2022-09-11T11:22:07.591Z,3.28
2022-09-11T11:25:06.096Z,5.13
2022-09-11T11:27:43.226Z,4.43
2022-09-11T11:30:19.470Z,3.22
2022-09-11T11:33:14.926Z,3.30
2022-09-11T11:36:04.238Z,2.58
2022-09-11T11:39:00.326Z,3.40
2022-09-11T11:41:30.746Z,2.33
2022-09-11T11:44:01.621Z,2.85
2022-09-11T11:46:39.096Z,2.35
2022-09-11T11:49:23.208Z,2.53
2022-09-11T11:52:03.008Z,2.38
2022-09-11T11:54:37.783Z,2.10
2022-09-11T11:57:14.512Z,2.80
2022-09-11T11:59:59.763Z,2.15
2022-09-11T12:02:43.969Z,5.18
2022-09-11T12:05:15.621Z,2.40
2022-09-11T12:07:42.059Z,3.05
2022-09-11T12:10:22.161Z,2.83
2022-09-11T12:12:54.057Z,3.50
2022-09-11T12:15:27.484Z,3.28
2022-09-11T12:18:07.557Z,2.80
2022-09-11T12:20:40.472Z,2.38
2022-09-11T12:23:30.601Z,3.40
2022-09-11T12:26:27.080Z,4.40
2022-09-11T12:29:12.265Z,2.58
2022-09-11T12:31:50.785Z,3.50
2022-09-11T12:34:27.160Z,2.30
2022-09-11T12:37:07.290Z,3.97
2022-09-11T12:39:39.709Z,3.35
2022-09-11T12:42:23.311Z,2.85
2022-09-11T12:44:49.607Z,6.47
2022-09-11T12:47:26.216Z,2.53
2022-09-11T12:50:02.709Z,3.05
2022-09-11T12:52:40.610Z,3.40
2022-09-11T12:55:31.421Z,2.65
2022-09-11T12:58:02.553Z,2.20
2022-09-11T13:00:44.519Z,4.57
2022-09-11T13:03:23.710Z,2.75
2022-09-11T13:06:13.508Z,2.35
2022-09-11T13:08:50.501Z,4.22
2022-09-11T13:11:38.867Z,4.40
2022-09-11T13:14:26.856Z,2.17
2022-09-11T13:16:54.542Z,3.22
2022-09-11T13:19:21.801Z,5.30
2022-09-11T13:21:51.902Z,4.10
2022-09-11T13:24:32.277Z,3.83
2022-09-11T13:27:02.103Z,2.63
2022-09-11T13:29:30.716Z,2.88
2022-09-11T13:31:59.877Z,2.72
2022-09-11T13:34:29.397Z,3.20
2022-09-11T13:36:57.611Z,3.13
2022-09-11T13:39:27.092Z,3.05
2022-09-11T13:42:02.584Z,2.47
2022-09-11T13:44:43.428Z,4.60
2022-09-11T13:47:40.208Z,2.83
2022-09-11T13:50:13.421Z,2.53
2022-09-11T13:52:42.065Z,3.50
2022-09-11T13:55:19.716Z,4.63
2022-09-11T13:58:02.054Z,2.25
2022-09-11T14:00:48.718Z,3.47
2022-09-11T14:03:20.359Z,3.33
2022-09-11T14:05:54.251Z,4.13
2022-09-11T14:08:37.656Z,4.13
2022-09-11T14:11:16.691Z,2.40
2022-09-11T14:13:51.793Z,2.85
2022-09-11T14:16:31.694Z,2.67
2022-09-11T14:19:13.233Z,2.88
2022-09-11T14:21:44.141Z,2.92
2022-09-11T14:24:26.913Z,3.40
2022-09-11T14:26:54.043Z,3.28
2022-09-11T14:29:36.337Z,3.58
2022-09-11T14:32:32.351Z,4.43
2022-09-11T14:34:59.578Z,2.70
2022-09-11T14:37:28.591Z,2.88
2022-09-11T14:39:59.399Z,4.18
2022-09-11T14:42:29.158Z,2.42
2022-09-11T14:44:56.446Z,4.90
2022-09-11T14:47:24.589Z,3.20
2022-09-11T14:49:56.171Z,7.07
2022-09-11T14:52:27.723Z,3.08
2022-09-11T14:54:55.094Z,3.25
2022-09-11T14:57:24.013Z,3.78
2022-09-11T14:59:52.264Z,3.47
2022-09-11T15:02:25.031Z,4.07
2022-09-11T15:04:53.330Z,3.55
2022-09-11T15:07:22.373Z,3.25
2022-09-11T15:09:49.538Z,3.60
2022-09-11T15:12:16.039Z,3.35
2022-09-11T15:14:56.507Z,3.90
2022-09-11T15:17:25.653Z,4.45
2022-09-11T15:19:52.605Z,4.15
2022-09-11T15:22:19.035Z,3.85
2022-09-11T15:24:45.985Z,3.90
2022-09-11T15:27:12.383Z,3.58
2022-09-11T15:29:39.718Z,3.63
2022-09-11T15:32:07.828Z,2.92
2022-09-11T15:34:34.392Z,3.88
2022-09-11T15:37:00.807Z,4.25
2022-09-11T15:39:28.366Z,5.18
2022-09-11T15:41:55.728Z,3.50
2022-09-11T15:44:25.552Z,3.78
2022-09-11T15:46:54.279Z,3.78
2022-09-11T15:49:22.593Z,4.47
2022-09-11T15:51:50.660Z,4.05
2022-09-11T15:54:17.377Z,4.18
2022-09-11T15:56:45.220Z,3.92
2022-09-11T15:59:13.053Z,3.05
2022-09-11T16:01:40.865Z,3.67
2022-09-11T16:04:10.328Z,3.75
2022-09-11T16:06:39.875Z,3.33
2022-09-11T16:09:15.792Z,3.65
2022-09-11T16:11:44.294Z,5.03
2022-09-11T16:14:23.635Z,4.68
2022-09-11T16:16:51.004Z,4.68
2022-09-11T16:19:20.104Z,3.40
2022-09-11T16:21:47.414Z,4.30
2022-09-11T16:24:15.361Z,8.15
2022-09-11T16:26:43.994Z,4.45
2022-09-11T16:29:15.323Z,4.95
2022-09-11T16:31:42.461Z,5.50
2022-09-11T16:34:09.365Z,5.97
2022-09-11T16:36:39.156Z,6.47
2022-09-11T16:39:07.868Z,5.90
2022-09-11T16:41:34.713Z,6.68
2022-09-11T16:44:01.478Z,4.13
2022-09-11T16:46:28.112Z,5.22
2022-09-11T16:48:56.971Z,4.18
2022-09-11T16:51:26.834Z,6.50
2022-09-11T16:53:53.273Z,4.30
2022-09-11T16:56:21.587Z,5.47
2022-09-11T16:58:49.581Z,5.30
2022-09-11T17:01:19.208Z,5.93
2022-09-11T17:03:47.319Z,4.63
2022-09-11T17:06:15.302Z,5.38
2022-09-11T17:08:43.217Z,6.18
2022-09-11T17:11:13.722Z,4.80
2022-09-11T17:13:41.390Z,5.00
2022-09-11T17:16:16.412Z,4.95
2022-09-11T17:18:51.825Z,4.82
2022-09-11T17:21:18.216Z,7.63
2022-09-11T17:23:44.831Z,5.35
2022-09-11T17:26:15.681Z,5.63
2022-09-11T17:28:44.060Z,5.60
2022-09-11T17:31:11.429Z,3.85
2022-09-11T17:33:40.604Z,5.32
2022-09-11T17:36:09.849Z,4.03
2022-09-11T17:38:37.261Z,5.95
2022-09-11T17:41:07.099Z,4.28
2022-09-11T17:43:34.787Z,5.63
2022-09-11T17:46:10.770Z,6.28
2022-09-11T17:48:38.536Z,5.57
2022-09-11T17:51:12.801Z,5.82
2022-09-11T17:53:41.433Z,6.40
2022-09-11T17:56:10.825Z,5.60
2022-09-11T17:58:38.571Z,5.40
2022-09-11T18:01:06.023Z,4.75
2022-09-11T18:03:33.941Z,5.40
2022-09-11T18:06:02.493Z,5.57
2022-09-11T18:08:29.661Z,4.50
2022-09-11T18:11:01.062Z,6.60
2022-09-11T18:13:29.772Z,4.53
2022-09-11T18:15:56.248Z,4.57
2022-09-11T18:18:23.396Z,5.63
2022-09-11T18:20:54.373Z,4.88
2022-09-11T18:23:24.381Z,5.78
2022-09-11T18:25:51.492Z,5.82
2022-09-11T18:28:20.065Z,6.53
2022-09-11T18:30:47.270Z,6.25
2022-09-11T18:33:16.968Z,6.28
2022-09-11T18:35:44.069Z,6.38
2022-09-11T18:38:10.777Z,5.65
2022-09-11T18:40:37.504Z,6.30
2022-09-11T18:43:06.241Z,5.93
2022-09-11T18:45:35.877Z,6.95
2022-09-11T18:48:03.783Z,5.55
2022-09-11T18:50:30.201Z,4.63
2022-09-11T18:52:57.310Z,5.40
2022-09-11T18:55:23.781Z,5.10
2022-09-11T18:57:50.614Z,5.68
2022-09-11T19:00:18.595Z,4.70
2022-09-11T19:02:46.723Z,5.22
2022-09-11T19:05:15.489Z,5.28
2022-09-11T19:07:44.118Z,5.38
2022-09-11T19:10:12.305Z,6.22
2022-09-11T19:12:39.642Z,5.10
2022-09-11T19:15:07.606Z,5.22
2022-09-11T19:17:34.966Z,5.13
2022-09-11T19:20:01.549Z,4.70
2022-09-11T19:22:29.384Z,6.70
2022-09-11T19:24:55.769Z,5.32
2022-09-11T19:27:22.193Z,5.15
2022-09-11T19:29:50.215Z,6.43
2022-09-11T19:32:17.594Z,5.93
2022-09-11T19:34:47.287Z,5.53
2022-09-11T19:37:14.945Z,5.78
2022-09-11T19:39:41.366Z,6.25
2022-09-11T19:42:09.355Z,7.55
2022-09-11T19:44:35.984Z,5.70
2022-09-11T19:47:02.815Z,5.60
2022-09-11T19:49:30.208Z,6.80
2022-09-11T19:51:57.536Z,8.27
2022-09-11T19:54:24.406Z,8.82
2022-09-11T19:56:51.367Z,6.82
2022-09-11T19:59:18.720Z,5.72
2022-09-11T20:01:45.281Z,4.78
2022-09-11T20:04:13.408Z,5.88
2022-09-11T20:06:39.996Z,5.10
2022-09-11T20:11:53.372Z,3.97
2022-09-11T20:14:19.725Z,4.60
2022-09-11T20:16:46.127Z,4.55
2022-09-11T20:19:15.540Z,4.35
2022-09-11T20:21:41.985Z,4.40
2022-09-11T20:24:09.110Z,4.20
2022-09-11T20:26:36.419Z,4.45
2022-09-11T20:29:09.455Z,3.58
2022-09-11T20:31:46.942Z,5.47
2022-09-11T20:34:16.043Z,3.70
2022-09-11T20:36:42.862Z,5.15
2022-09-11T20:39:12.107Z,6.18
2022-09-11T20:41:39.225Z,4.95
2022-09-11T20:44:05.964Z,5.63
2022-09-11T20:46:32.469Z,5.05
2022-09-11T20:49:00.488Z,4.70
2022-09-11T20:51:27.089Z,4.43
2022-09-11T20:53:55.584Z,5.63
2022-09-11T20:56:24.142Z,4.85
2022-09-11T20:58:51.530Z,8.13
2022-09-11T21:01:21.706Z,4.60
2022-09-11T21:03:57.154Z,4.47
2022-09-11T21:06:26.544Z,5.68
2022-09-11T21:08:55.520Z,5.05
2022-09-11T21:11:22.706Z,4.82
2022-09-11T21:13:49.135Z,5.35
2022-09-11T21:16:16.092Z,5.15
2022-09-11T21:18:48.149Z,5.80
2022-09-11T21:21:14.577Z,4.90
2022-09-11T21:23:41.104Z,3.90
2022-09-11T21:26:09.530Z,5.07
2022-09-11T21:28:36.028Z,4.57
2022-09-11T21:31:02.608Z,3.97
2022-09-11T21:33:29.598Z,4.63
2022-09-11T21:35:56.014Z,4.78
2022-09-11T21:38:28.317Z,4.97
2022-09-11T21:40:56.101Z,6.00
2022-09-11T21:43:22.581Z,5.13
2022-09-11T21:45:48.929Z,4.28
2022-09-11T21:48:15.835Z,4.65
2022-09-11T21:50:42.450Z,4.93
2022-09-11T21:53:10.465Z,5.28
2022-09-11T21:55:42.955Z,4.80
2022-09-11T21:58:15.249Z,5.80
2022-09-11T22:00:43.207Z,5.45
2022-09-11T22:03:12.345Z,6.07
2022-09-11T22:05:43.051Z,5.20
2022-09-11T22:08:11.764Z,5.10
2022-09-11T22:10:42.862Z,4.85
2022-09-11T22:13:10.534Z,5.28
2022-09-11T22:15:42.070Z,5.57
2022-09-11T22:18:08.993Z,3.97
2022-09-11T22:20:39.228Z,4.10
2022-09-11T22:23:06.117Z,4.20
2022-09-11T22:25:34.157Z,4.22
2022-09-11T22:28:00.540Z,4.13
2022-09-11T22:30:27.975Z,3.60
2022-09-11T22:32:54.783Z,4.13
2022-09-11T22:35:21.140Z,4.63
2022-09-11T22:37:47.986Z,6.45
2022-09-11T22:40:14.619Z,5.78
2022-09-11T22:42:41.066Z,3.72
2022-09-11T22:45:09.435Z,5.60
2022-09-11T22:47:35.987Z,5.30
2022-09-11T22:50:02.402Z,4.70
2022-09-11T22:52:29.339Z,4.75
2022-09-11T22:54:55.681Z,4.78
2022-09-11T22:57:22.060Z,6.95
2022-09-11T22:59:49.357Z,4.57
2022-09-11T23:02:16.327Z,7.07
2022-09-11T23:05:05.531Z,3.78
2022-09-11T23:07:32.288Z,5.68
2022-09-11T23:09:58.729Z,4.57
2022-09-11T23:12:25.715Z,4.90
2022-09-11T23:14:52.940Z,6.03
2022-09-11T23:17:19.315Z,3.55
2022-09-11T23:19:46.229Z,5.63
2022-09-11T23:22:12.565Z,4.93
2022-09-11T23:24:38.922Z,6.10
2022-09-11T23:27:05.888Z,9.43
2022-09-11T23:29:32.228Z,3.80
2022-09-11T23:31:58.721Z,4.97
2022-09-11T23:34:25.534Z,4.65
2022-09-11T23:36:51.856Z,4.35
2022-09-11T23:39:18.191Z,4.03
2022-09-11T23:41:45.246Z,4.07
2022-09-11T23:44:11.820Z,4.85
2022-09-11T23:46:38.205Z,6.70
2022-09-11T23:49:06.236Z,4.38
2022-09-11T23:51:32.858Z,3.78
2022-09-11T23:53:59.550Z,5.05
2022-09-11T23:56:25.899Z,4.10
2022-09-11T23:58:52.243Z,6.80
